sensor_id;sensor_type;location;lat;lon;timestamp;pressure;altitude;pressure_sealevel;temperature;humidity
46464;BME280;32161;48.148;-1.554;2023-02-19T00:01:46;102269.94;;;12.02;93.02
46464;BME280;32161;48.148;-1.554;2023-02-19T00:04:15;102273.50;;;12.02;92.95
46464;BME280;32161;48.148;-1.554;2023-02-19T00:06:45;102259.69;;;12.04;92.85
46464;BME280;32161;48.148;-1.554;2023-02-19T00:09:15;102258.63;;;12.05;92.96
46464;BME280;32161;48.148;-1.554;2023-02-19T00:11:43;102259.69;;;12.04;92.84
46464;BME280;32161;48.148;-1.554;2023-02-19T00:14:16;102253.81;;;12.07;92.50
46464;BME280;32161;48.148;-1.554;2023-02-19T00:16:45;102258.00;;;12.09;92.39
46464;BME280;32161;48.148;-1.554;2023-02-19T00:19:14;102253.19;;;12.05;92.49
46464;BME280;32161;48.148;-1.554;2023-02-19T00:21:42;102261.97;;;12.07;92.46
46464;BME280;32161;48.148;-1.554;2023-02-19T00:24:12;102253.81;;;12.07;92.26
46464;BME280;32161;48.148;-1.554;2023-02-19T00:26:41;102240.81;;;12.09;92.59
46464;BME280;32161;48.148;-1.554;2023-02-19T00:29:13;102242.06;;;12.06;92.56
46464;BME280;32161;48.148;-1.554;2023-02-19T00:31:43;102248.34;;;12.00;92.76
46464;BME280;32161;48.148;-1.554;2023-02-19T00:34:12;102241.19;;;11.99;92.92
46464;BME280;32161;48.148;-1.554;2023-02-19T00:36:41;102243.50;;;11.95;93.00
46464;BME280;32161;48.148;-1.554;2023-02-19T00:39:13;102226.50;;;11.93;92.93
46464;BME280;32161;48.148;-1.554;2023-02-19T00:41:40;102224.00;;;11.98;92.96
46464;BME280;32161;48.148;-1.554;2023-02-19T00:44:10;102217.53;;;12.00;92.52
46464;BME280;32161;48.148;-1.554;2023-02-19T00:46:42;102227.81;;;12.04;92.47
46464;BME280;32161;48.148;-1.554;2023-02-19T00:49:17;102244.34;;;11.96;92.60
46464;BME280;32161;48.148;-1.554;2023-02-19T00:51:45;102237.41;;;11.93;92.98
46464;BME280;32161;48.148;-1.554;2023-02-19T00:54:13;102240.94;;;11.87;93.87
46464;BME280;32161;48.148;-1.554;2023-02-19T00:56:41;102222.09;;;11.92;94.07
46464;BME280;32161;48.148;-1.554;2023-02-19T00:59:09;102220.41;;;11.91;94.39
46464;BME280;32161;48.148;-1.554;2023-02-19T01:01:37;102209.94;;;11.88;93.98
46464;BME280;32161;48.148;-1.554;2023-02-19T01:04:06;102211.19;;;11.86;94.36
46464;BME280;32161;48.148;-1.554;2023-02-19T01:06:34;102198.78;;;11.83;94.41
46464;BME280;32161;48.148;-1.554;2023-02-19T01:09:03;102202.53;;;11.82;94.85
46464;BME280;32161;48.148;-1.554;2023-02-19T01:11:32;102217.59;;;11.78;94.84
46464;BME280;32161;48.148;-1.554;2023-02-19T01:14:01;102219.50;;;11.78;94.83
46464;BME280;32161;48.148;-1.554;2023-02-19T01:16:30;102222.66;;;11.81;94.63
46464;BME280;32161;48.148;-1.554;2023-02-19T01:18:59;102214.66;;;11.80;95.24
46464;BME280;32161;48.148;-1.554;2023-02-19T01:21:29;102203.75;;;11.80;95.18
46464;BME280;32161;48.148;-1.554;2023-02-19T01:23:59;102205.88;;;11.78;95.11
46464;BME280;32161;48.148;-1.554;2023-02-19T01:26:29;102215.53;;;11.80;95.35
46464;BME280;32161;48.148;-1.554;2023-02-19T01:28:57;102219.25;;;11.72;95.47
46464;BME280;32161;48.148;-1.554;2023-02-19T01:31:25;102221.13;;;11.72;95.65
46464;BME280;32161;48.148;-1.554;2023-02-19T01:33:55;102225.78;;;11.78;95.08
46464;BME280;32161;48.148;-1.554;2023-02-19T01:36:24;102227.88;;;11.76;95.70
46464;BME280;32161;48.148;-1.554;2023-02-19T01:38:54;102229.34;;;11.79;95.30
46464;BME280;32161;48.148;-1.554;2023-02-19T01:41:24;102227.88;;;11.76;95.63
46464;BME280;32161;48.148;-1.554;2023-02-19T01:43:59;102221.81;;;11.81;95.59
46464;BME280;32161;48.148;-1.554;2023-02-19T01:46:29;102221.81;;;11.81;95.24
46464;BME280;32161;48.148;-1.554;2023-02-19T01:49:01;102225.38;;;11.81;94.80
46464;BME280;32161;48.148;-1.554;2023-02-19T01:51:31;102212.16;;;11.78;95.29
46464;BME280;32161;48.148;-1.554;2023-02-19T01:54:04;102213.44;;;11.82;95.62
46464;BME280;32161;48.148;-1.554;2023-02-19T01:56:34;102220.75;;;11.82;95.11
46464;BME280;32161;48.148;-1.554;2023-02-19T01:59:04;102214.66;;;11.80;95.38
46464;BME280;32161;48.148;-1.554;2023-02-19T02:01:33;102221.06;;;11.93;94.64
46464;BME280;32161;48.148;-1.554;2023-02-19T02:04:01;102234.56;;;11.73;95.02
46464;BME280;32161;48.148;-1.554;2023-02-19T02:06:32;102233.50;;;11.74;96.25
46464;BME280;32161;48.148;-1.554;2023-02-19T02:09:02;102222.81;;;11.73;96.04
46464;BME280;32161;48.148;-1.554;2023-02-19T02:11:50;102212.38;;;11.77;95.87
46464;BME280;32161;48.148;-1.554;2023-02-19T02:14:23;102212.94;;;11.72;96.09
46464;BME280;32161;48.148;-1.554;2023-02-19T02:17:01;102224.91;;;11.71;96.47
46464;BME280;32161;48.148;-1.554;2023-02-19T02:20:18;102221.78;;;11.74;96.40
46464;BME280;32161;48.148;-1.554;2023-02-19T02:22:58;102227.22;;;11.74;96.31
46464;BME280;32161;48.148;-1.554;2023-02-19T02:26:05;102217.38;;;11.73;96.34
46464;BME280;32161;48.148;-1.554;2023-02-19T02:29:06;102227.22;;;11.74;96.40
46464;BME280;32161;48.148;-1.554;2023-02-19T02:31:44;102229.56;;;11.77;96.43
46464;BME280;32161;48.148;-1.554;2023-02-19T02:34:19;102224.72;;;11.72;96.43
46464;BME280;32161;48.148;-1.554;2023-02-19T02:36:54;102218.22;;;11.73;96.64
46464;BME280;32161;48.148;-1.554;2023-02-19T02:39:26;102219.69;;;11.76;96.69
46464;BME280;32161;48.148;-1.554;2023-02-19T02:41:56;102224.50;;;11.74;96.47
46464;BME280;32161;48.148;-1.554;2023-02-19T02:44:42;102231.00;;;11.73;96.70
46464;BME280;32161;48.148;-1.554;2023-02-19T02:47:36;102233.72;;;11.73;96.76
46464;BME280;32161;48.148;-1.554;2023-02-19T02:50:11;102230.34;;;11.71;96.98
46464;BME280;32161;48.148;-1.554;2023-02-19T02:52:41;102237.88;;;11.69;97.00
46464;BME280;32161;48.148;-1.554;2023-02-19T02:55:32;102223.44;;;11.68;97.01
46464;BME280;32161;48.148;-1.554;2023-02-19T02:58:02;102227.41;;;11.66;97.11
46464;BME280;32161;48.148;-1.554;2023-02-19T03:00:32;102238.91;;;11.68;97.08
46464;BME280;32161;48.148;-1.554;2023-02-19T03:03:26;102242.91;;;11.65;96.64
46464;BME280;32161;48.148;-1.554;2023-02-19T03:05:59;102230.91;;;11.60;97.35
46464;BME280;32161;48.148;-1.554;2023-02-19T03:08:34;102227.16;;;11.61;97.52
46464;BME280;32161;48.148;-1.554;2023-02-19T03:11:06;102226.28;;;11.60;97.45
46464;BME280;32161;48.148;-1.554;2023-02-19T03:13:58;102233.88;;;11.65;97.38
46464;BME280;32161;48.148;-1.554;2023-02-19T03:16:47;102233.88;;;11.65;97.17
46464;BME280;32161;48.148;-1.554;2023-02-19T03:19:42;102232.19;;;11.64;97.26
46464;BME280;32161;48.148;-1.554;2023-02-19T03:22:15;102236.34;;;11.60;97.37
46464;BME280;32161;48.148;-1.554;2023-02-19T03:24:50;102237.19;;;11.60;97.31
46464;BME280;32161;48.148;-1.554;2023-02-19T03:27:38;102225.47;;;11.60;97.58
46464;BME280;32161;48.148;-1.554;2023-02-19T03:30:09;102222.56;;;11.61;97.42
46464;BME280;32161;48.148;-1.554;2023-02-19T03:32:42;102220.66;;;11.62;97.29
46464;BME280;32161;48.148;-1.554;2023-02-19T03:35:15;102229.00;;;11.60;97.54
46464;BME280;32161;48.148;-1.554;2023-02-19T03:37:49;102232.41;;;11.62;97.24
46464;BME280;32161;48.148;-1.554;2023-02-19T03:40:17;102232.19;;;11.64;97.31
46464;BME280;32161;48.148;-1.554;2023-02-19T03:42:51;102212.50;;;11.62;97.38
46464;BME280;32161;48.148;-1.554;2023-02-19T03:45:39;102212.28;;;11.63;97.00
46464;BME280;32161;48.148;-1.554;2023-02-19T03:48:24;102218.78;;;11.62;97.34
46464;BME280;32161;48.148;-1.554;2023-02-19T03:51:11;102226.13;;;11.62;96.98
46464;BME280;32161;48.148;-1.554;2023-02-19T03:53:51;102230.50;;;11.63;97.23
46464;BME280;32161;48.148;-1.554;2023-02-19T03:56:27;102223.19;;;11.63;97.33
46464;BME280;32161;48.148;-1.554;2023-02-19T03:59:03;102221.94;;;11.66;96.82
46464;BME280;32161;48.148;-1.554;2023-02-19T04:01:39;102215.00;;;11.63;96.95
46464;BME280;32161;48.148;-1.554;2023-02-19T04:04:16;102219.00;;;11.61;97.30
46464;BME280;32161;48.148;-1.554;2023-02-19T04:06:53;102219.81;;;11.61;96.47
46464;BME280;32161;48.148;-1.554;2023-02-19T04:09:25;102218.94;;;11.54;96.95
46464;BME280;32161;48.148;-1.554;2023-02-19T04:11:55;102224.19;;;11.56;97.09
46464;BME280;32161;48.148;-1.554;2023-02-19T04:14:27;102221.66;;;11.54;97.05
46464;BME280;32161;48.148;-1.554;2023-02-19T04:17:00;102222.31;;;11.28;96.19
46464;BME280;32161;48.148;-1.554;2023-02-19T04:19:33;102209.56;;;11.29;97.17
46464;BME280;32161;48.148;-1.554;2023-02-19T04:22:05;102223.66;;;11.39;97.08
46464;BME280;32161;48.148;-1.554;2023-02-19T04:24:36;102228.94;;;11.47;97.06
46464;BME280;32161;48.148;-1.554;2023-02-19T04:27:05;102225.84;;;11.50;97.10
46464;BME280;32161;48.148;-1.554;2023-02-19T04:29:33;102221.22;;;11.51;96.93
46464;BME280;32161;48.148;-1.554;2023-02-19T04:32:01;102224.41;;;11.54;97.16
46464;BME280;32161;48.148;-1.554;2023-02-19T04:34:28;102223.72;;;11.52;96.40
46464;BME280;32161;48.148;-1.554;2023-02-19T04:36:56;102233.19;;;11.56;96.44
46464;BME280;32161;48.148;-1.554;2023-02-19T04:39:25;102234.63;;;11.52;96.39
46464;BME280;32161;48.148;-1.554;2023-02-19T04:41:52;102231.06;;;11.52;96.61
46464;BME280;32161;48.148;-1.554;2023-02-19T04:44:20;102229.19;;;11.52;96.94
46464;BME280;32161;48.148;-1.554;2023-02-19T04:46:48;102234.44;;;11.54;96.48
46464;BME280;32161;48.148;-1.554;2023-02-19T04:49:15;102232.34;;;11.56;96.51
46464;BME280;32161;48.148;-1.554;2023-02-19T04:51:43;102243.91;;;11.58;96.60
46464;BME280;32161;48.148;-1.554;2023-02-19T04:54:10;102245.34;;;11.60;95.64
46464;BME280;32161;48.148;-1.554;2023-02-19T04:56:40;102250.19;;;11.58;95.96
46464;BME280;32161;48.148;-1.554;2023-02-19T04:59:07;102243.63;;;11.53;95.86
46464;BME280;32161;48.148;-1.554;2023-02-19T05:01:36;102241.97;;;11.52;95.92
46464;BME280;32161;48.148;-1.554;2023-02-19T05:04:04;102246.13;;;11.47;95.99
46464;BME280;32161;48.148;-1.554;2023-02-19T05:06:31;102253.50;;;11.54;94.45
46464;BME280;32161;48.148;-1.554;2023-02-19T05:08:59;102256.22;;;11.54;94.75
46464;BME280;32161;48.148;-1.554;2023-02-19T05:11:26;102264.41;;;11.54;94.43
46464;BME280;32161;48.148;-1.554;2023-02-19T05:13:55;102264.97;;;11.49;94.54
46464;BME280;32161;48.148;-1.554;2023-02-19T05:16:23;102261.41;;;11.48;93.89
46464;BME280;32161;48.148;-1.554;2023-02-19T05:18:51;102269.41;;;11.50;93.37
46464;BME280;32161;48.148;-1.554;2023-02-19T05:21:19;102270.25;;;11.51;93.38
46464;BME280;32161;48.148;-1.554;2023-02-19T05:23:46;102279.41;;;11.43;93.26
46464;BME280;32161;48.148;-1.554;2023-02-19T05:26:17;102277.72;;;11.42;93.14
46464;BME280;32161;48.148;-1.554;2023-02-19T05:28:46;102290.69;;;11.40;93.19
46464;BME280;32161;48.148;-1.554;2023-02-19T05:31:17;102286.44;;;11.09;95.13
46464;BME280;32161;48.148;-1.554;2023-02-19T05:33:45;102283.44;;;11.25;94.44
46464;BME280;32161;48.148;-1.554;2023-02-19T05:36:18;102288.88;;;11.25;93.59
46464;BME280;32161;48.148;-1.554;2023-02-19T05:38:47;102294.84;;;11.14;93.45
46464;BME280;32161;48.148;-1.554;2023-02-19T05:41:19;102284.19;;;10.70;93.17
46464;BME280;32161;48.148;-1.554;2023-02-19T05:43:48;102297.22;;;10.38;94.39
46464;BME280;32161;48.148;-1.554;2023-02-19T05:46:20;102293.69;;;10.59;93.04
46464;BME280;32161;48.148;-1.554;2023-02-19T05:48:50;102300.91;;;10.67;91.95
46464;BME280;32161;48.148;-1.554;2023-02-19T05:51:21;102307.72;;;10.78;91.67
46464;BME280;32161;48.148;-1.554;2023-02-19T05:53:51;102315.75;;;10.86;91.23
46464;BME280;32161;48.148;-1.554;2023-02-19T05:56:38;102314.69;;;10.65;90.35
46464;BME280;32161;48.148;-1.554;2023-02-19T05:59:13;102320.44;;;10.56;90.79
46464;BME280;32161;48.148;-1.554;2023-02-19T06:01:43;102319.00;;;10.60;90.10
46464;BME280;32161;48.148;-1.554;2023-02-19T06:04:11;102313.91;;;10.71;90.10
46464;BME280;32161;48.148;-1.554;2023-02-19T06:06:41;102328.94;;;10.67;89.30
46464;BME280;32161;48.148;-1.554;2023-02-19T06:09:09;102336.13;;;10.39;90.50
46464;BME280;32161;48.148;-1.554;2023-02-19T06:11:37;102335.00;;;10.33;91.00
46464;BME280;32161;48.148;-1.554;2023-02-19T06:14:06;102349.69;;;10.24;91.88
46464;BME280;32161;48.148;-1.554;2023-02-19T06:16:33;102335.56;;;10.43;91.45
46464;BME280;32161;48.148;-1.554;2023-02-19T06:19:03;102333.28;;;10.62;90.59
46464;BME280;32161;48.148;-1.554;2023-02-19T06:21:30;102333.72;;;10.65;90.62
46464;BME280;32161;48.148;-1.554;2023-02-19T06:23:58;102337.28;;;10.66;90.24
46464;BME280;32161;48.148;-1.554;2023-02-19T06:26:30;102334.94;;;10.63;90.28
46464;BME280;32161;48.148;-1.554;2023-02-19T06:28:57;102330.19;;;10.65;90.67
46464;BME280;32161;48.148;-1.554;2023-02-19T06:31:25;102343.66;;;10.73;90.34
46464;BME280;32161;48.148;-1.554;2023-02-19T06:33:53;102343.25;;;10.76;89.82
46464;BME280;32161;48.148;-1.554;2023-02-19T06:36:22;102345.94;;;10.55;90.22
46464;BME280;32161;48.148;-1.554;2023-02-19T06:38:50;102343.38;;;10.68;90.23
46464;BME280;32161;48.148;-1.554;2023-02-19T06:41:18;102332.22;;;10.63;90.07
46464;BME280;32161;48.148;-1.554;2023-02-19T06:43:46;102339.91;;;10.59;90.40
46464;BME280;32161;48.148;-1.554;2023-02-19T06:46:13;102339.22;;;10.72;89.77
46464;BME280;32161;48.148;-1.554;2023-02-19T06:48:43;102340.38;;;10.63;89.85
46464;BME280;32161;48.148;-1.554;2023-02-19T06:51:12;102345.44;;;10.66;90.37
46464;BME280;32161;48.148;-1.554;2023-02-19T06:53:41;102349.28;;;10.57;90.52
46464;BME280;32161;48.148;-1.554;2023-02-19T06:56:25;102355.31;;;10.52;91.01
46464;BME280;32161;48.148;-1.554;2023-02-19T06:58:54;102368.28;;;10.50;91.63
46464;BME280;32161;48.148;-1.554;2023-02-19T07:01:23;102364.59;;;10.58;91.05
46464;BME280;32161;48.148;-1.554;2023-02-19T07:03:50;102367.31;;;10.58;91.80
46464;BME280;32161;48.148;-1.554;2023-02-19T07:06:19;102367.81;;;10.46;92.78
46464;BME280;32161;48.148;-1.554;2023-02-19T07:08:49;102379.41;;;10.40;93.22
46464;BME280;32161;48.148;-1.554;2023-02-19T07:11:17;102381.28;;;10.40;93.93
46464;BME280;32161;48.148;-1.554;2023-02-19T07:13:45;102375.59;;;10.35;94.40
46464;BME280;32161;48.148;-1.554;2023-02-19T07:16:13;102384.84;;;10.40;94.77
46464;BME280;32161;48.148;-1.554;2023-02-19T07:18:43;102388.88;;;10.44;94.84
46464;BME280;32161;48.148;-1.554;2023-02-19T07:21:13;102396.94;;;10.52;94.69
46464;BME280;32161;48.148;-1.554;2023-02-19T07:23:41;102381.91;;;10.57;94.80
46464;BME280;32161;48.148;-1.554;2023-02-19T07:26:13;102386.16;;;10.59;94.57
46464;BME280;32161;48.148;-1.554;2023-02-19T07:28:42;102395.81;;;10.62;94.38
46464;BME280;32161;48.148;-1.554;2023-02-19T07:31:10;102403.31;;;10.60;94.39
46464;BME280;32161;48.148;-1.554;2023-02-19T07:33:38;102397.34;;;10.49;94.60
46464;BME280;32161;48.148;-1.554;2023-02-19T07:36:07;102407.63;;;10.54;94.75
46464;BME280;32161;48.148;-1.554;2023-02-19T07:38:35;102406.78;;;10.54;94.91
46464;BME280;32161;48.148;-1.554;2023-02-19T07:41:05;102412.22;;;10.54;95.04
46464;BME280;32161;48.148;-1.554;2023-02-19T07:43:36;102414.94;;;10.54;94.94
46464;BME280;32161;48.148;-1.554;2023-02-19T07:46:05;102413.34;;;10.59;94.87
46464;BME280;32161;48.148;-1.554;2023-02-19T07:48:34;102419.63;;;10.60;94.79
46464;BME280;32161;48.148;-1.554;2023-02-19T07:51:03;102423.00;;;10.62;94.85
46464;BME280;32161;48.148;-1.554;2023-02-19T07:53:33;102424.88;;;10.61;95.09
46464;BME280;32161;48.148;-1.554;2023-02-19T07:56:02;102417.94;;;10.59;94.99
46464;BME280;32161;48.148;-1.554;2023-02-19T07:58:32;102422.34;;;10.60;95.48
46464;BME280;32161;48.148;-1.554;2023-02-19T08:01:08;102415.69;;;10.62;95.09
46464;BME280;32161;48.148;-1.554;2023-02-19T08:03:36;102429.75;;;10.66;95.45
46464;BME280;32161;48.148;-1.554;2023-02-19T08:06:03;102431.06;;;10.70;94.73
46464;BME280;32161;48.148;-1.554;2023-02-19T08:08:30;102433.69;;;10.48;94.39
46464;BME280;32161;48.148;-1.554;2023-02-19T08:11:01;102438.00;;;10.43;95.10
46464;BME280;32161;48.148;-1.554;2023-02-19T08:13:51;102439.09;;;10.19;95.97
46464;BME280;32161;48.148;-1.554;2023-02-19T08:16:20;102437.63;;;10.31;96.08
46464;BME280;32161;48.148;-1.554;2023-02-19T08:18:48;102448.06;;;10.42;96.17
46464;BME280;32161;48.148;-1.554;2023-02-19T08:21:16;102457.16;;;10.49;96.42
46464;BME280;32161;48.148;-1.554;2023-02-19T08:23:45;102455.84;;;10.45;96.12
46464;BME280;32161;48.148;-1.554;2023-02-19T08:26:13;102444.88;;;10.54;95.85
46464;BME280;32161;48.148;-1.554;2023-02-19T08:28:41;102457.59;;;10.53;94.01
46464;BME280;32161;48.148;-1.554;2023-02-19T08:31:11;102447.47;;;10.62;93.17
46464;BME280;32161;48.148;-1.554;2023-02-19T08:33:39;102459.00;;;10.64;93.99
46464;BME280;32161;48.148;-1.554;2023-02-19T08:36:09;102458.25;;;10.70;93.90
46464;BME280;32161;48.148;-1.554;2023-02-19T08:38:37;102456.84;;;10.74;92.94
46464;BME280;32161;48.148;-1.554;2023-02-19T08:41:06;102451.03;;;10.77;92.67
46464;BME280;32161;48.148;-1.554;2023-02-19T08:43:34;102457.09;;;10.79;92.69
46464;BME280;32161;48.148;-1.554;2023-02-19T08:46:02;102448.38;;;10.84;92.28
46464;BME280;32161;48.148;-1.554;2023-02-19T08:48:33;102447.16;;;10.86;92.47
46464;BME280;32161;48.148;-1.554;2023-02-19T08:51:03;102442.25;;;10.96;92.19
46464;BME280;32161;48.148;-1.554;2023-02-19T08:53:35;102442.91;;;10.98;90.69
46464;BME280;32161;48.148;-1.554;2023-02-19T08:56:04;102440.59;;;10.95;91.22
46464;BME280;32161;48.148;-1.554;2023-02-19T08:58:32;102445.81;;;10.97;91.17
46464;BME280;32161;48.148;-1.554;2023-02-19T09:01:01;102440.19;;;10.98;91.17
46464;BME280;32161;48.148;-1.554;2023-02-19T09:03:28;102436.03;;;11.03;91.28
46464;BME280;32161;48.148;-1.554;2023-02-19T09:05:57;102428.47;;;10.98;90.52
46464;BME280;32161;48.148;-1.554;2023-02-19T09:08:25;102437.09;;;11.02;90.35
46464;BME280;32161;48.148;-1.554;2023-02-19T09:11:00;102434.75;;;10.98;89.55
46464;BME280;32161;48.148;-1.554;2023-02-19T09:13:28;102437.13;;;10.87;89.93
46464;BME280;32161;48.148;-1.554;2023-02-19T09:15:56;102445.09;;;10.88;89.65
46464;BME280;32161;48.148;-1.554;2023-02-19T09:18:25;102458.50;;;10.90;88.51
46464;BME280;32161;48.148;-1.554;2023-02-19T09:20:52;102459.19;;;10.77;89.20
46464;BME280;32161;48.148;-1.554;2023-02-19T09:23:22;102459.16;;;10.92;88.26
46464;BME280;32161;48.148;-1.554;2023-02-19T09:25:56;102468.44;;;10.97;88.08
46464;BME280;32161;48.148;-1.554;2023-02-19T09:28:25;102463.47;;;10.86;88.68
46464;BME280;32161;48.148;-1.554;2023-02-19T09:30:53;102461.56;;;11.02;88.21
46464;BME280;32161;48.148;-1.554;2023-02-19T09:33:20;102468.41;;;11.12;86.47
46464;BME280;32161;48.148;-1.554;2023-02-19T09:35:48;102473.84;;;11.12;87.08
46464;BME280;32161;48.148;-1.554;2023-02-19T09:38:15;102475.53;;;11.13;86.69
46464;BME280;32161;48.148;-1.554;2023-02-19T09:40:45;102477.66;;;11.18;86.62
46464;BME280;32161;48.148;-1.554;2023-02-19T09:43:18;102474.06;;;11.11;86.51
46464;BME280;32161;48.148;-1.554;2023-02-19T09:45:47;102482.28;;;11.17;86.39
46464;BME280;32161;48.148;-1.554;2023-02-19T09:48:17;102493.25;;;11.24;85.97
46464;BME280;32161;48.148;-1.554;2023-02-19T09:50:47;102491.81;;;11.28;86.70
46464;BME280;32161;48.148;-1.554;2023-02-19T09:53:19;102478.75;;;11.38;84.98
46464;BME280;32161;48.148;-1.554;2023-02-19T09:55:49;102475.63;;;11.20;85.13
46464;BME280;32161;48.148;-1.554;2023-02-19T09:58:23;102495.41;;;11.14;85.26
46464;BME280;32161;48.148;-1.554;2023-02-19T10:00:55;102506.19;;;11.22;85.50
46464;BME280;32161;48.148;-1.554;2023-02-19T10:03:27;102505.97;;;11.38;83.66
46464;BME280;32161;48.148;-1.554;2023-02-19T10:06:03;102506.31;;;11.50;82.68
46464;BME280;32161;48.148;-1.554;2023-02-19T10:08:34;102514.19;;;11.45;82.60
46464;BME280;32161;48.148;-1.554;2023-02-19T10:11:04;102509.41;;;11.47;83.90
46464;BME280;32161;48.148;-1.554;2023-02-19T10:13:35;102507.41;;;11.56;83.44
46464;BME280;32161;48.148;-1.554;2023-02-19T10:16:05;102517.34;;;11.63;83.96
46464;BME280;32161;48.148;-1.554;2023-02-19T10:18:38;102509.50;;;11.75;82.57
46464;BME280;32161;48.148;-1.554;2023-02-19T10:21:16;102504.72;;;11.77;83.32
46464;BME280;32161;48.148;-1.554;2023-02-19T10:23:45;102501.38;;;11.82;82.11
46464;BME280;32161;48.148;-1.554;2023-02-19T10:26:15;102504.59;;;11.85;80.16
46464;BME280;32161;48.148;-1.554;2023-02-19T10:28:43;102509.25;;;11.91;81.44
46464;BME280;32161;48.148;-1.554;2023-02-19T10:31:17;102509.13;;;12.00;81.26
46464;BME280;32161;48.148;-1.554;2023-02-19T10:33:49;102511.34;;;12.11;80.33
46464;BME280;32161;48.148;-1.554;2023-02-19T10:36:26;102511.44;;;12.03;80.41
46464;BME280;32161;48.148;-1.554;2023-02-19T10:38:55;102504.16;;;12.10;79.95
46464;BME280;32161;48.148;-1.554;2023-02-19T10:41:25;102510.53;;;12.17;81.06
46464;BME280;32161;48.148;-1.554;2023-02-19T10:43:57;102506.19;;;12.23;79.96
46464;BME280;32161;48.148;-1.554;2023-02-19T10:46:28;102512.72;;;12.28;80.03
46464;BME280;32161;48.148;-1.554;2023-02-19T10:48:59;102520.50;;;12.31;79.73
46464;BME280;32161;48.148;-1.554;2023-02-19T10:51:32;102512.63;;;12.43;79.00
46464;BME280;32161;48.148;-1.554;2023-02-19T10:54:06;102510.94;;;12.42;79.28
46464;BME280;32161;48.148;-1.554;2023-02-19T10:56:35;102509.88;;;12.43;79.37
46464;BME280;32161;48.148;-1.554;2023-02-19T10:59:21;102505.72;;;12.47;78.95
46464;BME280;32161;48.148;-1.554;2023-02-19T11:01:54;102514.13;;;12.52;77.97
46464;BME280;32161;48.148;-1.554;2023-02-19T11:04:24;102510.41;;;12.60;76.82
46464;BME280;32161;48.148;-1.554;2023-02-19T11:06:52;102514.47;;;12.70;76.64
46464;BME280;32161;48.148;-1.554;2023-02-19T11:09:27;102507.59;;;12.81;74.59
46464;BME280;32161;48.148;-1.554;2023-02-19T11:11:57;102504.47;;;12.84;75.72
46464;BME280;32161;48.148;-1.554;2023-02-19T11:14:25;102514.78;;;12.89;76.10
46464;BME280;32161;48.148;-1.554;2023-02-19T11:16:56;102524.88;;;12.95;76.94
46464;BME280;32161;48.148;-1.554;2023-02-19T11:19:30;102521.91;;;12.90;76.81
46464;BME280;32161;48.148;-1.554;2023-02-19T11:22:00;102536.84;;;12.94;77.06
46464;BME280;32161;48.148;-1.554;2023-02-19T11:24:33;102537.50;;;12.96;76.02
46464;BME280;32161;48.148;-1.554;2023-02-19T11:27:06;102535.22;;;13.06;76.73
46464;BME280;32161;48.148;-1.554;2023-02-19T11:29:42;102538.81;;;13.07;76.05
46464;BME280;32161;48.148;-1.554;2023-02-19T11:32:27;102541.56;;;13.13;75.78
46464;BME280;32161;48.148;-1.554;2023-02-19T11:35:17;102537.63;;;13.23;75.40
46464;BME280;32161;48.148;-1.554;2023-02-19T11:37:56;102547.56;;;13.30;75.08
46464;BME280;32161;48.148;-1.554;2023-02-19T11:40:35;102541.03;;;13.31;75.59
46464;BME280;32161;48.148;-1.554;2023-02-19T11:43:21;102545.94;;;13.08;75.57
46464;BME280;32161;48.148;-1.554;2023-02-19T11:46:01;102552.28;;;13.15;75.45
46464;BME280;32161;48.148;-1.554;2023-02-19T11:48:48;102545.81;;;13.23;75.35
46464;BME280;32161;48.148;-1.554;2023-02-19T11:51:36;102544.00;;;13.36;73.67
46464;BME280;32161;48.148;-1.554;2023-02-19T11:54:20;102544.00;;;13.36;75.08
46464;BME280;32161;48.148;-1.554;2023-02-19T11:57:03;102546.53;;;13.44;75.36
46464;BME280;32161;48.148;-1.554;2023-02-19T11:59:41;102539.19;;;13.45;74.93
46464;BME280;32161;48.148;-1.554;2023-02-19T12:05:36;102547.38;;;13.38;73.57
46464;BME280;32161;48.148;-1.554;2023-02-19T12:08:38;102540.66;;;13.48;74.12
46464;BME280;32161;48.148;-1.554;2023-02-19T12:11:43;102538.56;;;13.43;73.20
46464;BME280;32161;48.148;-1.554;2023-02-19T12:14:45;102529.75;;;13.54;74.32
46464;BME280;32161;48.148;-1.554;2023-02-19T12:17:40;102521.38;;;13.62;75.59
46464;BME280;32161;48.148;-1.554;2023-02-19T12:20:23;102524.31;;;13.67;74.13
46464;BME280;32161;48.148;-1.554;2023-02-19T12:23:24;102510.06;;;13.72;73.45
46464;BME280;32161;48.148;-1.554;2023-02-19T12:26:00;102514.84;;;13.50;73.56
46464;BME280;32161;48.148;-1.554;2023-02-19T12:29:07;102510.44;;;13.62;73.98
46464;BME280;32161;48.148;-1.554;2023-02-19T12:32:11;102505.63;;;13.71;72.98
46464;BME280;32161;48.148;-1.554;2023-02-19T12:38:01;102489.66;;;13.88;73.41
46464;BME280;32161;48.148;-1.554;2023-02-19T12:40:45;102502.28;;;13.89;72.66
46464;BME280;32161;48.148;-1.554;2023-02-19T12:43:18;102496.16;;;13.74;72.74
46464;BME280;32161;48.148;-1.554;2023-02-19T12:45:51;102489.66;;;13.81;73.01
46464;BME280;32161;48.148;-1.554;2023-02-19T12:48:29;102478.50;;;13.89;72.03
46464;BME280;32161;48.148;-1.554;2023-02-19T12:51:06;102468.44;;;13.97;71.15
46464;BME280;32161;48.148;-1.554;2023-02-19T12:53:44;102475.38;;;13.99;71.52
46464;BME280;32161;48.148;-1.554;2023-02-19T12:56:20;102465.69;;;14.03;71.66
46464;BME280;32161;48.148;-1.554;2023-02-19T12:58:53;102458.94;;;14.06;72.88
46464;BME280;32161;48.148;-1.554;2023-02-19T13:01:27;102453.69;;;14.04;72.77
46464;BME280;32161;48.148;-1.554;2023-02-19T13:04:29;102451.81;;;14.05;71.52
46464;BME280;32161;48.148;-1.554;2023-02-19T13:07:04;102437.28;;;14.11;71.22
46464;BME280;32161;48.148;-1.554;2023-02-19T13:09:35;102442.53;;;14.19;72.58
46464;BME280;32161;48.148;-1.554;2023-02-19T13:12:10;102438.97;;;14.19;72.33
46464;BME280;32161;48.148;-1.554;2023-02-19T13:14:42;102441.88;;;14.30;72.81
46464;BME280;32161;48.148;-1.554;2023-02-19T13:17:21;102433.91;;;14.22;72.87